Buoy 46533

sailwx.info

Track history (hours):
 
Tides and Currents Weather Stations Pressure Air Temp Water Temp Dewpoint Dewpoint Depression Visibility Wind Speed Wind Dir Waves Ship Positions

Drifting buoy 46533

Last reported at 2014-Jul-22 15:20 UTC. Time now 2014-Jul-22 17:26 UTC.
Position N 54°16' E 168°14'.

Barometer 1022.9 mb
Water temperature 10.6 ° C

Date/timePositionNaut miles runAvg speedWind from/ knotsBaromVisibWave heightAir tempDewpointWater temp
2014-Jul-22 15:20N 54°16' E 168°14'1 0.3 1022.9 10.6
2014-Jul-22 13:20N 54°15' E 168°14'1 0.3 1022.6 10.7
2014-Jul-22 10:20N 54°15' E 168°13'0 0.2 1022.4 10.7
2014-Jul-22 09:20N 54°15' E 168°13'1 0.2 1022.1 10.7
2014-Jul-22 03:20N 54°14' E 168°15'0 0.0 1020.8 10.6
2014-Jul-22 02:20N 54°14' E 168°15'0 0.0 1020.6 10.6
2014-Jul-22 01:20N 54°14' E 168°15'1 0.6 1020.8 10.6
2014-Jul-22 00:20N 54°15' E 168°14'2 0.9 1020.5 10.5
2014-Jul-21 22:20N 54°13' E 168°14'0 0.0 1020.3 10.4
2014-Jul-21 21:20N 54°13' E 168°14'1 0.3 1020.0 10.4
2014-Jul-21 18:20N 54°12' E 168°15'0 0.4 1019.3 10.5
2014-Jul-21 17:20N 54°12' E 168°15'0 0.4 1019.0 10.5
2014-Jul-21 16:20N 54°13' E 168°15'1 0.6 1018.8 10.5
2014-Jul-21 15:20N 54°13' E 168°16'0 0.1 1018.9 10.5
2014-Jul-21 14:20N 54°13' E 168°16'1 0.2 1018.8 10.6
2014-Jul-21 10:20N 54°14' E 168°15'1 0.6 1018.5 10.8
2014-Jul-21 09:20N 54°13' E 168°14'1 0.4 1018.6 10.8
2014-Jul-21 07:20N 54°12' E 168°14'2 0.5 1018.1 10.8
2014-Jul-21 04:20N 54°12' E 168°16'0 0.2 1018.6 10.8
2014-Jul-21 03:20N 54°12' E 168°16'0 0.5 1018.9 10.7
2014-Jul-21 02:20N 54°12' E 168°16'1 0.8 1019.1 10.6
2014-Jul-21 01:20N 54°12' E 168°17'0 0.3 1019.1 10.4
2014-Jul-21 00:20N 54°12' E 168°17'1 0.4 1019.4 10.4
2014-Jul-20 22:20N 54°12' E 168°15'1 0.7 1019.8 10.3
2014-Jul-20 21:20N 54°12' E 168°15'1 0.4 1019.9 10.3
2014-Jul-20 18:20N 54°10' E 168°15'0 0.0 1020.0 10.2
2014-Jul-20 17:20N 54°10' E 168°15'0 0.3 1020.0 10.2
2014-Jul-20 16:20N 54°10' E 168°16'0 0.5 1019.9 10.2
2014-Jul-20 15:20N 54°10' E 168°16'0 0.1 1020.2 10.2
2014-Jul-20 14:20N 54°10' E 168°16'1 0.4 1020.3 10.2
2014-Jul-20 12:20N 54°11' E 168°17'1 0.2 1020.7 10.3
2014-Jul-20 09:20N 54°11' E 168°16'1 0.4 1020.6 10.4
2014-Jul-20 07:20N 54°10' E 168°15'2 0.6 1020.3 10.3
2014-Jul-20 04:20N 54°09' E 168°17'1 0.8 1020.9 10.4
2014-Jul-20 03:20N 54°09' E 168°16'1 0.3 1021.2 10.3
2014-Jul-20 00:20N 54°09' E 168°17'1 0.6 1021.9 10.2
2014-Jul-19 23:20N 54°09' E 168°17'1 0.5 1022.2 10.2
2014-Jul-19 22:20N 54°09' E 168°17'1 0.2 1022.2 10.1
2014-Jul-19 19:20N 54°08' E 168°16'1 0.3 1022.2 10.1
2014-Jul-19 15:20N 54°07' E 168°16'2 0.5 1021.9 10.1
2014-Jul-19 12:20N 54°07' E 168°19'0 0.1 1022.4 10.2
2014-Jul-19 09:20N 54°07' E 168°19'2 0.6 1022.6 10.2
2014-Jul-19 06:20N 54°05' E 168°18'0 0.0 1022.5 10.2
2014-Jul-19 04:20N 54°05' E 168°18'1 0.5 1023.0 10.2
2014-Jul-19 01:20N 54°05' E 168°20'0 0.0 1023.8 10.0
2014-Jul-19 00:20N 54°05' E 168°20'1 0.3 1024.0 10.0
2014-Jul-18 22:20N 54°05' E 168°21'0 0.1 1023.9 10.0
2014-Jul-18 20:20N 54°05' E 168°20'0 0.0 1024.1 9.9
2014-Jul-18 19:20N 54°05' E 168°20'0 0.2 1023.9 9.8
2014-Jul-18 18:20N 54°05' E 168°20'0 0.2 1023.8 9.8
2014-Jul-18 16:20N 54°05' E 168°20'0 0.3 1023.4 9.8
2014-Jul-18 15:20N 54°04' E 168°20'1 0.7 1023.5 9.8
2014-Jul-18 14:20N 54°04' E 168°21'1 0.1 1023.4 9.9
2014-Jul-18 09:20N 54°04' E 168°22'1 0.1 1023.6 9.9
2014-Jul-18 03:20N 54°04' E 168°23'1 0.2 1023.5 10.0
2014-Jul-18 00:20N 54°03' E 168°24'1 0.4 1023.9 10.0
2014-Jul-17 22:20N 54°03' E 168°25'1 0.1 1024.0 10.0
2014-Jul-17 16:20N 54°03' E 168°25'0 0.4 1024.0 10.0
2014-Jul-17 15:20N 54°03' E 168°26'1 0.2 1024.1 10.0
2014-Jul-17 11:20N 54°02' E 168°27'1 0.2 1024.2 10.0
2014-Jul-17 08:20N 54°03' E 168°28'1 0.3 1023.8 10.0
2014-Jul-17 06:20N 54°02' E 168°29'0 0.0 1023.4 10.0
2014-Jul-17 03:20N 54°02' E 168°29'0 0.0 1023.8 10.0
2014-Jul-17 01:20N 54°02' E 168°29'0 0.3 1023.7 10.0
2014-Jul-17 00:20N 54°02' E 168°29'1 0.4 1023.6 9.9
2014-Jul-16 22:20N 54°01' E 168°30'1 0.7 1023.5 9.8
2014-Jul-16 21:20N 54°02' E 168°31'0 0.2 1023.3 9.8
2014-Jul-16 20:20N 54°02' E 168°31'0 0.0 1022.9 9.7
2014-Jul-16 19:20N 54°02' E 168°31'0 0.1 1022.6 9.7
2014-Jul-16 17:20N 54°02' E 168°31'0 0.2 1022.0 9.7
2014-Jul-16 16:20N 54°02' E 168°31'0 0.1 1021.8 9.7
2014-Jul-16 15:20N 54°02' E 168°30'1 0.3 1021.5 9.7
2014-Jul-16 10:20N 54°01' E 168°33'0 0.4 1020.3 9.7
2014-Jul-16 09:20N 54°01' E 168°33'0 0.0 1019.8 9.7
2014-Jul-16 08:20N 54°01' E 168°33'1 0.2 1019.2 9.7
2014-Jul-16 05:20N 54°02' E 168°34'0 0.0 1018.5 9.8
2014-Jul-16 03:20N 54°02' E 168°34'0 0.4 1018.5 9.9
2014-Jul-16 02:20N 54°01' E 168°34'1 0.5 1018.5 9.9
2014-Jul-16 00:20N 54°00' E 168°35'1 0.4 1018.1 9.8
2014-Jul-15 21:20N 54°00' E 168°37'0 0.1 1017.2 9.6
2014-Jul-15 19:20N 54°01' E 168°37'1 0.2 1016.3 9.6
2014-Jul-15 16:20N 54°01' E 168°37'1 0.2 1015.4 9.7
2014-Jul-15 13:20N 54°01' E 168°36'2 0.3 1015.3 9.7
2014-Jul-15 07:20N 53°60' E 168°40'1 0.6 1014.3 9.7
2014-Jul-15 05:20N 54°01' E 168°41'0 0.0 1014.4 9.7
2014-Jul-15 04:20N 54°01' E 168°41'0 0.2 1014.5 9.6
2014-Jul-15 02:20N 54°01' E 168°40'1 0.3 1014.6 9.6
2014-Jul-15 00:20N 54°00' E 168°40'1 0.6 1014.5 9.6
2014-Jul-14 23:20N 53°60' E 168°40'1 0.5 1014.3 9.5
2014-Jul-14 21:20N 53°59' E 168°41'1 0.6 1014.1 9.5
2014-Jul-14 19:20N 54°00' E 168°43'0 0.0 1013.9 9.5
2014-Jul-14 18:20N 54°00' E 168°43'0 0.2 1013.9 9.5
2014-Jul-14 16:20N 54°00' E 168°43'0 0.3 1014.0 9.5
2014-Jul-14 15:20N 54°01' E 168°43'1 0.3 1014.0 9.5
2014-Jul-14 13:20N 54°00' E 168°43'0 0.0 1014.5 9.5
2014-Jul-14 10:20N 54°00' E 168°43'1 0.4 1015.0 9.5
2014-Jul-14 07:20N 53°60' E 168°45'1 0.7 1015.2 9.6
2014-Jul-14 05:20N 54°01' E 168°47'0 0.3 1015.4 9.6
2014-Jul-14 04:20N 54°01' E 168°46'0 0.1 1015.5 9.6
2014-Jul-14 02:20N 54°01' E 168°46'1 0.8 1016.3 9.5
2014-Jul-14 01:20N 53°60' E 168°46'0 0.1 1016.5 9.4
2014-Jul-13 23:20N 53°60' E 168°46'2 0.9 1016.9 9.3
2014-Jul-13 21:20N 53°60' E 168°49'0 0.0 1017.1 9.2
2014-Jul-13 20:20N 53°60' E 168°49'1 0.6 1017.1 9.2
2014-Jul-13 19:20N 53°60' E 168°50'1 0.8 1017.0 9.2
2014-Jul-13 18:20N 53°60' E 168°49'0 0.5 1017.0 9.2
2014-Jul-13 17:20N 54°00' E 168°49'0 0.5 1017.0 9.2
2014-Jul-13 16:20N 54°00' E 168°48'0 0.2 1017.1 9.2
2014-Jul-13 15:20N 54°00' E 168°48'0 0.0 1017.2 9.2
2014-Jul-13 14:20N 54°00' E 168°48'0 0.0 1017.5 9.2
2014-Jul-13 13:20N 54°00' E 168°48'1 0.3 1017.5 9.2
2014-Jul-13 10:20N 53°60' E 168°49'0 0.2 1018.0 9.3
2014-Jul-13 09:20N 53°60' E 168°49'0 0.0 1017.9 9.3
2014-Jul-13 08:20N 53°60' E 168°49'1 0.4 1017.8 9.3
2014-Jul-13 05:20N 54°00' E 168°50'0 0.0 1018.1 9.3
2014-Jul-13 04:20N 54°00' E 168°50'0 0.5 1018.5 9.3
2014-Jul-13 03:20N 54°01' E 168°51'0 0.3 1018.7 9.2
2014-Jul-13 02:20N 54°01' E 168°50'0 0.3 1018.9 9.2
2014-Jul-13 01:20N 54°00' E 168°51'0 0.3 1019.0 9.2
2014-Jul-13 00:20N 54°00' E 168°50'1 0.2 1019.1 9.2
2014-Jul-12 19:20N 54°00' E 168°52'0 0.2 1019.8 8.8
2014-Jul-12 18:20N 54°00' E 168°52'1 0.6 1020.1 8.8
2014-Jul-12 17:20N 54°01' E 168°52'0 0.0 1019.9 8.8
2014-Jul-12 16:20N 54°01' E 168°52'1 0.6 1020.1 8.8
2014-Jul-12 15:20N 54°00' E 168°53'   1020.3 8.8
Track history (hours):
 
Tides and Currents Weather Stations Pressure Air Temp Water Temp Dewpoint Dewpoint Depression Visibility Wind Speed Wind Dir Waves Ship Positions

Drifting buoy 46533

Last reported at 2014-Jul-22 15:20 UTC. Time now 2014-Jul-22 17:26 UTC.
Position N 54°16' E 168°14'.

Barometer 1022.9 mb
Water temperature 10.6 ° C

Date/timePositionNaut miles runAvg speedWind from/ knotsBaromVisibWave heightAir tempDewpointWater temp
2014-Jul-22 15:20N 54°16' E 168°14'1 0.3 1022.9 10.6
2014-Jul-22 13:20N 54°15' E 168°14'1 0.3 1022.6 10.7
2014-Jul-22 10:20N 54°15' E 168°13'0 0.2 1022.4 10.7
2014-Jul-22 09:20N 54°15' E 168°13'1 0.2 1022.1 10.7
2014-Jul-22 03:20N 54°14' E 168°15'0 0.0 1020.8 10.6
2014-Jul-22 02:20N 54°14' E 168°15'0 0.0 1020.6 10.6
2014-Jul-22 01:20N 54°14' E 168°15'1 0.6 1020.8 10.6
2014-Jul-22 00:20N 54°15' E 168°14'2 0.9 1020.5 10.5
2014-Jul-21 22:20N 54°13' E 168°14'0 0.0 1020.3 10.4
2014-Jul-21 21:20N 54°13' E 168°14'1 0.3 1020.0 10.4
2014-Jul-21 18:20N 54°12' E 168°15'0 0.4 1019.3 10.5
2014-Jul-21 17:20N 54°12' E 168°15'0 0.4 1019.0 10.5
2014-Jul-21 16:20N 54°13' E 168°15'1 0.6 1018.8 10.5
2014-Jul-21 15:20N 54°13' E 168°16'0 0.1 1018.9 10.5
2014-Jul-21 14:20N 54°13' E 168°16'1 0.2 1018.8 10.6
2014-Jul-21 10:20N 54°14' E 168°15'1 0.6 1018.5 10.8
2014-Jul-21 09:20N 54°13' E 168°14'1 0.4 1018.6 10.8
2014-Jul-21 07:20N 54°12' E 168°14'2 0.5 1018.1 10.8
2014-Jul-21 04:20N 54°12' E 168°16'0 0.2 1018.6 10.8
2014-Jul-21 03:20N 54°12' E 168°16'0 0.5 1018.9 10.7
2014-Jul-21 02:20N 54°12' E 168°16'1 0.8 1019.1 10.6
2014-Jul-21 01:20N 54°12' E 168°17'0 0.3 1019.1 10.4
2014-Jul-21 00:20N 54°12' E 168°17'1 0.4 1019.4 10.4
2014-Jul-20 22:20N 54°12' E 168°15'1 0.7 1019.8 10.3
2014-Jul-20 21:20N 54°12' E 168°15'1 0.4 1019.9 10.3
2014-Jul-20 18:20N 54°10' E 168°15'0 0.0 1020.0 10.2
2014-Jul-20 17:20N 54°10' E 168°15'0 0.3 1020.0 10.2
2014-Jul-20 16:20N 54°10' E 168°16'0 0.5 1019.9 10.2
2014-Jul-20 15:20N 54°10' E 168°16'0 0.1 1020.2 10.2
2014-Jul-20 14:20N 54°10' E 168°16'1 0.4 1020.3 10.2
2014-Jul-20 12:20N 54°11' E 168°17'1 0.2 1020.7 10.3
2014-Jul-20 09:20N 54°11' E 168°16'1 0.4 1020.6 10.4
2014-Jul-20 07:20N 54°10' E 168°15'2 0.6 1020.3 10.3
2014-Jul-20 04:20N 54°09' E 168°17'1 0.8 1020.9 10.4
2014-Jul-20 03:20N 54°09' E 168°16'1 0.3 1021.2 10.3
2014-Jul-20 00:20N 54°09' E 168°17'1 0.6 1021.9 10.2
2014-Jul-19 23:20N 54°09' E 168°17'1 0.5 1022.2 10.2
2014-Jul-19 22:20N 54°09' E 168°17'1 0.2 1022.2 10.1
2014-Jul-19 19:20N 54°08' E 168°16'1 0.3 1022.2 10.1
2014-Jul-19 15:20N 54°07' E 168°16'2 0.5 1021.9 10.1
2014-Jul-19 12:20N 54°07' E 168°19'0 0.1 1022.4 10.2
2014-Jul-19 09:20N 54°07' E 168°19'2 0.6 1022.6 10.2
2014-Jul-19 06:20N 54°05' E 168°18'0 0.0 1022.5 10.2
2014-Jul-19 04:20N 54°05' E 168°18'1 0.5 1023.0 10.2
2014-Jul-19 01:20N 54°05' E 168°20'0 0.0 1023.8 10.0
2014-Jul-19 00:20N 54°05' E 168°20'1 0.3 1024.0 10.0
2014-Jul-18 22:20N 54°05' E 168°21'0 0.1 1023.9 10.0
2014-Jul-18 20:20N 54°05' E 168°20'0 0.0 1024.1 9.9
2014-Jul-18 19:20N 54°05' E 168°20'0 0.2 1023.9 9.8
2014-Jul-18 18:20N 54°05' E 168°20'0 0.2 1023.8 9.8
2014-Jul-18 16:20N 54°05' E 168°20'0 0.3 1023.4 9.8
2014-Jul-18 15:20N 54°04' E 168°20'1 0.7 1023.5 9.8
2014-Jul-18 14:20N 54°04' E 168°21'1 0.1 1023.4 9.9
2014-Jul-18 09:20N 54°04' E 168°22'1 0.1 1023.6 9.9
2014-Jul-18 03:20N 54°04' E 168°23'1 0.2 1023.5 10.0
2014-Jul-18 00:20N 54°03' E 168°24'1 0.4 1023.9 10.0
2014-Jul-17 22:20N 54°03' E 168°25'1 0.1 1024.0 10.0
2014-Jul-17 16:20N 54°03' E 168°25'0 0.4 1024.0 10.0
2014-Jul-17 15:20N 54°03' E 168°26'1 0.2 1024.1 10.0
2014-Jul-17 11:20N 54°02' E 168°27'1 0.2 1024.2 10.0
2014-Jul-17 08:20N 54°03' E 168°28'1 0.3 1023.8 10.0
2014-Jul-17 06:20N 54°02' E 168°29'0 0.0 1023.4 10.0
2014-Jul-17 03:20N 54°02' E 168°29'0 0.0 1023.8 10.0
2014-Jul-17 01:20N 54°02' E 168°29'0 0.3 1023.7 10.0
2014-Jul-17 00:20N 54°02' E 168°29'1 0.4 1023.6 9.9
2014-Jul-16 22:20N 54°01' E 168°30'1 0.7 1023.5 9.8
2014-Jul-16 21:20N 54°02' E 168°31'0 0.2 1023.3 9.8
2014-Jul-16 20:20N 54°02' E 168°31'0 0.0 1022.9 9.7
2014-Jul-16 19:20N 54°02' E 168°31'0 0.1 1022.6 9.7
2014-Jul-16 17:20N 54°02' E 168°31'0 0.2 1022.0 9.7
2014-Jul-16 16:20N 54°02' E 168°31'0 0.1 1021.8 9.7
2014-Jul-16 15:20N 54°02' E 168°30'1 0.3 1021.5 9.7
2014-Jul-16 10:20N 54°01' E 168°33'0 0.4 1020.3 9.7
2014-Jul-16 09:20N 54°01' E 168°33'0 0.0 1019.8 9.7
2014-Jul-16 08:20N 54°01' E 168°33'1 0.2 1019.2 9.7
2014-Jul-16 05:20N 54°02' E 168°34'0 0.0 1018.5 9.8
2014-Jul-16 03:20N 54°02' E 168°34'0 0.4 1018.5 9.9
2014-Jul-16 02:20N 54°01' E 168°34'1 0.5 1018.5 9.9
2014-Jul-16 00:20N 54°00' E 168°35'1 0.4 1018.1 9.8
2014-Jul-15 21:20N 54°00' E 168°37'0 0.1 1017.2 9.6
2014-Jul-15 19:20N 54°01' E 168°37'1 0.2 1016.3 9.6
2014-Jul-15 16:20N 54°01' E 168°37'1 0.2 1015.4 9.7
2014-Jul-15 13:20N 54°01' E 168°36'2 0.3 1015.3 9.7
2014-Jul-15 07:20N 53°60' E 168°40'1 0.6 1014.3 9.7
2014-Jul-15 05:20N 54°01' E 168°41'0 0.0 1014.4 9.7
2014-Jul-15 04:20N 54°01' E 168°41'0 0.2 1014.5 9.6
2014-Jul-15 02:20N 54°01' E 168°40'1 0.3 1014.6 9.6
2014-Jul-15 00:20N 54°00' E 168°40'1 0.6 1014.5 9.6
2014-Jul-14 23:20N 53°60' E 168°40'1 0.5 1014.3 9.5
2014-Jul-14 21:20N 53°59' E 168°41'1 0.6 1014.1 9.5
2014-Jul-14 19:20N 54°00' E 168°43'0 0.0 1013.9 9.5
2014-Jul-14 18:20N 54°00' E 168°43'0 0.2 1013.9 9.5
2014-Jul-14 16:20N 54°00' E 168°43'0 0.3 1014.0 9.5
2014-Jul-14 15:20N 54°01' E 168°43'1 0.3 1014.0 9.5
2014-Jul-14 13:20N 54°00' E 168°43'0 0.0 1014.5 9.5
2014-Jul-14 10:20N 54°00' E 168°43'1 0.4 1015.0 9.5
2014-Jul-14 07:20N 53°60' E 168°45'1 0.7 1015.2 9.6
2014-Jul-14 05:20N 54°01' E 168°47'0 0.3 1015.4 9.6
2014-Jul-14 04:20N 54°01' E 168°46'0 0.1 1015.5 9.6
2014-Jul-14 02:20N 54°01' E 168°46'1 0.8 1016.3 9.5
2014-Jul-14 01:20N 53°60' E 168°46'0 0.1 1016.5 9.4
2014-Jul-13 23:20N 53°60' E 168°46'2 0.9 1016.9 9.3
2014-Jul-13 21:20N 53°60' E 168°49'0 0.0 1017.1 9.2
2014-Jul-13 20:20N 53°60' E 168°49'1 0.6 1017.1 9.2
2014-Jul-13 19:20N 53°60' E 168°50'1 0.8 1017.0 9.2
2014-Jul-13 18:20N 53°60' E 168°49'0 0.5 1017.0 9.2
2014-Jul-13 17:20N 54°00' E 168°49'0 0.5 1017.0 9.2
2014-Jul-13 16:20N 54°00' E 168°48'0 0.2 1017.1 9.2
2014-Jul-13 15:20N 54°00' E 168°48'0 0.0 1017.2 9.2
2014-Jul-13 14:20N 54°00' E 168°48'0 0.0 1017.5 9.2
2014-Jul-13 13:20N 54°00' E 168°48'1 0.3 1017.5 9.2
2014-Jul-13 10:20N 53°60' E 168°49'0 0.2 1018.0 9.3
2014-Jul-13 09:20N 53°60' E 168°49'0 0.0 1017.9 9.3
2014-Jul-13 08:20N 53°60' E 168°49'1 0.4 1017.8 9.3
2014-Jul-13 05:20N 54°00' E 168°50'0 0.0 1018.1 9.3
2014-Jul-13 04:20N 54°00' E 168°50'0 0.5 1018.5 9.3
2014-Jul-13 03:20N 54°01' E 168°51'0 0.3 1018.7 9.2
2014-Jul-13 02:20N 54°01' E 168°50'0 0.3 1018.9 9.2
2014-Jul-13 01:20N 54°00' E 168°51'0 0.3 1019.0 9.2
2014-Jul-13 00:20N 54°00' E 168°50'1 0.2 1019.1 9.2
2014-Jul-12 19:20N 54°00' E 168°52'0 0.2 1019.8 8.8
2014-Jul-12 18:20N 54°00' E 168°52'1 0.6 1020.1 8.8
2014-Jul-12 17:20N 54°01' E 168°52'0 0.0 1019.9 8.8
2014-Jul-12 16:20N 54°01' E 168°52'1 0.6 1020.1 8.8
2014-Jul-12 15:20N 54°00' E 168°53'   1020.3 8.8

Dump ship's entire track history